Time;durP1;ratioP1;P1;durP2;ratioP2;P2;SDS_P1;SDS_P2;PMS_P1;PMS_P2;Temp;Humidity;BMP_temperature;BMP_pressure;BME280_temperature;BME280_humidity;BME280_pressure;Samples;Min_cycle;Max_cycle;Signal;HPM_P1;HPM_P2
2024/03/19 00:02:51;;;;;;;;;40.75;36.50;;;;;;;;6491596;46;8912;-54
2024/03/19 00:08:53;;;;;;;;;36.00;32.00;;;;;;;;6491615;39;8943;-52
2024/03/19 00:14:55;;;;;;;;;48.50;41.00;;;;;;;;6491308;46;8932;-51
2024/03/19 00:20:56;;;;;;;;;39.25;34.75;;;;;;;;6492316;31;8883;-52
2024/03/19 00:26:57;;;;;;;;;31.50;30.25;;;;;;;;6490696;46;8884;-52
2024/03/19 00:32:59;;;;;;;;;36.50;35.25;;;;;;;;6493076;31;9006;-51
2024/03/19 00:39:00;;;;;;;;;36.25;32.00;;;;;;;;6490892;31;8944;-53
2024/03/19 00:45:02;;;;;;;;;35.50;29.50;;;;;;;;6489915;39;8872;-50
2024/03/19 00:51:03;;;;;;;;;41.50;36.75;;;;;;;;6491303;39;8979;-53
2024/03/19 00:57:04;;;;;;;;;33.50;30.50;;;;;;;;6490960;31;8933;-51
2024/03/19 01:03:08;;;;;;;;;40.00;35.25;;;;;;;;6491121;31;8908;-53
2024/03/19 01:09:12;;;;;;;;;35.50;26.75;;;;;;;;6490675;39;9527;-52
2024/03/19 01:15:13;;;;;;;;;37.00;34.00;;;;;;;;6490350;47;8876;-54
2024/03/19 01:21:14;;;;;;;;;32.75;30.00;;;;;;;;6492411;46;8868;-51
2024/03/19 01:27:16;;;;;;;;;27.00;27.00;;;;;;;;6493010;39;8951;-51
2024/03/19 01:33:18;;;;;;;;;36.25;33.50;;;;;;;;6493597;31;8844;-50
2024/03/19 01:39:22;;;;;;;;;19.75;17.25;;;;;;;;6491318;46;8923;-53
2024/03/19 01:45:24;;;;;;;;;30.50;28.75;;;;;;;;6492798;31;9010;-52
2024/03/19 01:51:26;;;;;;;;;31.50;29.25;;;;;;;;6492855;31;8872;-51
2024/03/19 01:57:28;;;;;;;;;31.25;26.50;;;;;;;;6492509;46;8934;-51
2024/03/19 02:03:31;;;;;;;;;39.00;29.75;;;;;;;;6492729;31;8857;-52
2024/03/19 02:09:31;;;;;;;;;28.75;26.75;;;;;;;;6492859;39;8943;-53
2024/03/19 02:15:32;;;;;;;;;30.00;26.25;;;;;;;;6492057;46;8885;-52
2024/03/19 02:21:34;;;;;;;;;27.50;27.50;;;;;;;;6493434;31;8847;-53
2024/03/19 02:27:35;;;;;;;;;27.75;22.25;;;;;;;;6492125;39;8861;-48
2024/03/19 02:33:37;;;;;;;;;26.25;24.00;;;;;;;;6492585;39;8938;-51
2024/03/19 02:39:38;;;;;;;;;31.25;26.75;;;;;;;;6491672;39;8939;-52
2024/03/19 02:45:39;;;;;;;;;25.75;22.50;;;;;;;;6491562;39;8978;-52
2024/03/19 02:51:41;;;;;;;;;18.75;15.50;;;;;;;;6492170;39;8936;-51
2024/03/19 02:57:44;;;;;;;;;17.50;15.75;;;;;;;;6492704;31;8922;-52
2024/03/19 03:03:46;;;;;;;;;12.50;12.50;;;;;;;;6492753;39;8892;-52
2024/03/19 03:09:48;;;;;;;;;22.00;14.00;;;;;;;;6492261;46;9112;-49
2024/03/19 03:15:51;;;;;;;;;17.75;15.25;;;;;;;;6491905;31;8882;-52
2024/03/19 03:21:52;;;;;;;;;20.00;16.75;;;;;;;;6492308;31;8988;-49
2024/03/19 03:27:54;;;;;;;;;14.50;14.00;;;;;;;;6491584;31;8886;-52
2024/03/19 03:33:55;;;;;;;;;15.00;13.00;;;;;;;;6491844;39;8853;-50
2024/03/19 03:39:57;;;;;;;;;25.00;16.00;;;;;;;;6491851;39;8882;-52
2024/03/19 03:45:58;;;;;;;;;13.75;12.00;;;;;;;;6491057;39;8936;-53
2024/03/19 03:51:59;;;;;;;;;20.50;16.25;;;;;;;;6492071;39;8922;-51
2024/03/19 03:58:00;;;;;;;;;12.00;9.75;;;;;;;;6491197;46;8853;-51
2024/03/19 04:04:01;;;;;;;;;13.00;11.75;;;;;;;;6466684;39;9098;-58
2024/03/19 04:10:06;;;;;;;;;18.00;16.75;;;;;;;;6492756;39;8986;-60
2024/03/19 04:16:08;;;;;;;;;10.67;10.67;;;;;;;;6493272;46;8868;-60
2024/03/19 04:22:10;;;;;;;;;14.75;14.75;;;;;;;;6492893;39;8922;-59
2024/03/19 04:28:10;;;;;;;;;19.75;14.50;;;;;;;;6491975;47;8895;-59
2024/03/19 04:34:12;;;;;;;;;18.25;17.25;;;;;;;;6492577;39;8879;-59
2024/03/19 04:40:13;;;;;;;;;11.75;11.00;;;;;;;;6492475;31;9551;-59
2024/03/19 04:46:14;;;;;;;;;8.00;6.25;;;;;;;;6492458;46;8903;-59
2024/03/19 04:52:15;;;;;;;;;11.75;9.00;;;;;;;;6491803;31;8975;-59
2024/03/19 04:58:17;;;;;;;;;12.50;11.50;;;;;;;;6494751;46;8856;-59
2024/03/19 05:04:21;;;;;;;;;15.00;14.75;;;;;;;;6494430;39;9134;-58
2024/03/19 05:10:22;;;;;;;;;15.75;12.00;;;;;;;;6494857;31;8977;-59
2024/03/19 05:16:23;;;;;;;;;13.00;13.00;;;;;;;;6495205;39;8876;-59
2024/03/19 05:22:24;;;;;;;;;11.25;11.25;;;;;;;;6493626;39;8991;-59
2024/03/19 05:28:26;;;;;;;;;12.25;11.00;;;;;;;;6494168;46;8924;-59
2024/03/19 05:34:27;;;;;;;;;12.00;12.00;;;;;;;;6492403;39;9019;-59
2024/03/19 05:40:28;;;;;;;;;13.50;11.50;;;;;;;;6494058;39;8989;-59
2024/03/19 05:46:30;;;;;;;;;16.25;15.25;;;;;;;;6482115;39;9540;-58
2024/03/19 05:52:31;;;;;;;;;13.50;13.50;;;;;;;;6492217;46;8926;-60
2024/03/19 05:58:32;;;;;;;;;18.75;16.75;;;;;;;;6494442;39;8971;-59
2024/03/19 06:04:34;;;;;;;;;16.25;15.00;;;;;;;;6494222;46;9043;-61
2024/03/19 06:10:35;;;;;;;;;18.50;15.50;;;;;;;;6494697;39;8983;-59
2024/03/19 06:16:36;;;;;;;;;21.50;19.00;;;;;;;;6493568;39;8917;-61
2024/03/19 06:22:37;;;;;;;;;11.50;11.00;;;;;;;;6494114;39;8968;-59
2024/03/19 06:28:41;;;;;;;;;11.75;8.50;;;;;;;;6493138;39;9494;-58
2024/03/19 06:34:42;;;;;;;;;11.25;10.00;;;;;;;;6494605;31;8810;-59
2024/03/19 06:40:45;;;;;;;;;15.25;13.75;;;;;;;;6494548;36;8855;-63
2024/03/19 06:46:46;;;;;;;;;24.00;18.00;;;;;;;;6493368;46;8901;-59
2024/03/19 06:52:47;;;;;;;;;12.50;11.00;;;;;;;;6493555;46;8956;-56
2024/03/19 06:58:49;;;;;;;;;15.00;14.75;;;;;;;;6493264;46;8937;-59
2024/03/19 07:04:51;;;;;;;;;18.50;17.75;;;;;;;;6493694;39;8970;-59
2024/03/19 07:10:54;;;;;;;;;16.75;16.75;;;;;;;;6492754;39;8909;-60
2024/03/19 07:16:55;;;;;;;;;17.75;17.75;;;;;;;;6492345;39;8862;-59
2024/03/19 07:22:56;;;;;;;;;20.00;16.00;;;;;;;;6493942;39;8917;-60
2024/03/19 07:28:57;;;;;;;;;9.50;7.75;;;;;;;;6491005;39;9043;-59
2024/03/19 07:34:58;;;;;;;;;14.25;10.50;;;;;;;;6491840;39;8974;-59
2024/03/19 07:40:59;;;;;;;;;14.00;7.25;;;;;;;;6490193;31;9526;-61
2024/03/19 07:47:01;;;;;;;;;15.25;12.00;;;;;;;;6489792;39;8922;-62
2024/03/19 07:53:02;;;;;;;;;13.50;10.00;;;;;;;;6491144;46;8972;-60
2024/03/19 07:59:03;;;;;;;;;10.25;10.25;;;;;;;;6491976;39;9041;-59
2024/03/19 08:05:08;;;;;;;;;14.25;13.00;;;;;;;;6491214;46;8959;-59
2024/03/19 08:11:10;;;;;;;;;16.75;12.50;;;;;;;;6489859;31;9061;-60
2024/03/19 08:17:11;;;;;;;;;16.50;15.75;;;;;;;;6491445;39;9004;-59
2024/03/19 08:23:15;;;;;;;;;20.25;15.50;;;;;;;;6489152;31;8890;-58
2024/03/19 08:29:16;;;;;;;;;19.25;15.50;;;;;;;;6485408;47;8963;-57
2024/03/19 08:35:17;;;;;;;;;18.75;16.00;;;;;;;;6489743;39;8890;-59
2024/03/19 08:41:18;;;;;;;;;11.25;8.50;;;;;;;;6485463;39;9120;-60
2024/03/19 08:47:27;;;;;;;;;23.75;22.00;;;;;;;;6485290;47;8942;-56
2024/03/19 08:53:29;;;;;;;;;18.75;16.75;;;;;;;;6489205;39;9034;-57
2024/03/19 08:59:30;;;;;;;;;29.25;27.50;;;;;;;;6489514;47;8936;-57
2024/03/19 09:05:34;;;;;;;;;22.25;18.50;;;;;;;;6489507;39;9064;-56
2024/03/19 09:11:36;;;;;;;;;45.25;37.50;;;;;;;;6476460;31;9107;-53
2024/03/19 09:17:41;;;;;;;;;26.00;24.50;;;;;;;;6487505;31;8941;-57
2024/03/19 09:23:44;;;;;;;;;39.25;36.50;;;;;;;;6483461;31;8972;-59
2024/03/19 09:29:45;;;;;;;;;61.00;48.75;;;;;;;;6485063;39;8935;-58
2024/03/19 09:35:46;;;;;;;;;31.50;25.50;;;;;;;;6486346;39;8909;-56
2024/03/19 09:42:05;;;;;;;;;71.75;57.75;;;;;;;;6486744;39;8978;-56
2024/03/19 09:48:07;;;;;;;;;24.25;20.25;;;;;;;;6489378;39;8930;-58
2024/03/19 09:54:14;;;;;;;;;26.00;23.25;;;;;;;;6485039;39;8963;-59
2024/03/19 10:00:18;;;;;;;;;37.25;32.00;;;;;;;;6485743;46;9164;-59
2024/03/19 10:06:19;;;;;;;;;23.75;21.75;;;;;;;;6527226;36;8865;-58
2024/03/19 10:12:22;;;;;;;;;27.25;24.25;;;;;;;;6477188;46;8920;-58
2024/03/19 10:18:24;;;;;;;;;33.75;27.50;;;;;;;;6485308;46;8945;-59
2024/03/19 10:24:26;;;;;;;;;31.00;26.75;;;;;;;;6483948;31;8943;-62
2024/03/19 10:30:28;;;;;;;;;36.75;30.00;;;;;;;;6488249;31;9062;-60
2024/03/19 10:36:35;;;;;;;;;16.25;14.75;;;;;;;;6488454;31;8912;-61
2024/03/19 10:42:41;;;;;;;;;12.25;12.25;;;;;;;;6486307;39;8921;-60
2024/03/19 10:48:43;;;;;;;;;23.50;21.00;;;;;;;;6481802;46;8972;-58
2024/03/19 10:54:47;;;;;;;;;16.50;15.25;;;;;;;;6485555;46;9023;-65
2024/03/19 11:00:48;;;;;;;;;34.50;31.75;;;;;;;;6486182;39;9034;-59
2024/03/19 11:06:56;;;;;;;;;20.25;19.25;;;;;;;;6478217;46;9012;-58
2024/03/19 11:13:12;;;;;;;;;23.00;19.25;;;;;;;;6480354;46;9014;-61
2024/03/19 11:19:20;;;;;;;;;20.25;17.50;;;;;;;;6481157;31;9565;-60
2024/03/19 11:25:23;;;;;;;;;35.00;25.50;;;;;;;;6479541;39;8924;-60
2024/03/19 11:31:41;;;;;;;;;34.00;27.00;;;;;;;;6477354;39;9063;-61
2024/03/19 11:37:51;;;;;;;;;36.00;31.75;;;;;;;;6478724;46;8962;-64
2024/03/19 11:43:53;;;;;;;;;24.25;20.50;;;;;;;;6481542;31;8919;-62
2024/03/19 11:49:54;;;;;;;;;31.50;29.00;;;;;;;;6481230;39;8921;-61
2024/03/19 11:55:57;;;;;;;;;27.25;26.50;;;;;;;;6477377;39;8984;-61
2024/03/19 12:01:59;;;;;;;;;79.00;60.00;;;;;;;;6477842;39;9054;-62
2024/03/19 12:08:01;;;;;;;;;38.50;34.00;;;;;;;;6476691;39;8917;-60
2024/03/19 12:14:05;;;;;;;;;26.75;26.75;;;;;;;;6478752;46;9032;-62
2024/03/19 12:20:12;;;;;;;;;55.00;44.25;;;;;;;;6476437;39;9056;-61
2024/03/19 12:26:15;;;;;;;;;27.00;23.25;;;;;;;;6484667;46;8923;-61
2024/03/19 12:32:25;;;;;;;;;29.50;26.00;;;;;;;;6488271;39;8938;-60
2024/03/19 12:38:30;;;;;;;;;31.75;29.50;;;;;;;;6485534;46;8929;-62
2024/03/19 12:44:31;;;;;;;;;25.50;22.25;;;;;;;;6486730;39;9033;-61
2024/03/19 12:50:34;;;;;;;;;25.50;24.25;;;;;;;;6485553;39;8997;-61
2024/03/19 12:56:38;;;;;;;;;26.25;23.25;;;;;;;;6471653;47;8937;-60
2024/03/19 13:02:44;;;;;;;;;24.75;22.75;;;;;;;;6482817;31;9049;-60
2024/03/19 13:08:47;;;;;;;;;21.00;19.00;;;;;;;;6483001;47;8941;-60
2024/03/19 13:14:48;;;;;;;;;25.75;22.50;;;;;;;;6485290;39;8946;-59
2024/03/19 13:20:50;;;;;;;;;40.75;35.00;;;;;;;;6489442;39;9039;-60
2024/03/19 13:26:51;;;;;;;;;37.25;30.50;;;;;;;;6488024;39;8922;-60
2024/03/19 13:32:58;;;;;;;;;25.00;24.00;;;;;;;;6485745;31;9051;-61
2024/03/19 13:38:59;;;;;;;;;23.75;21.50;;;;;;;;6486353;39;8889;-61
2024/03/19 13:45:00;;;;;;;;;30.00;26.25;;;;;;;;6486175;31;9096;-60
2024/03/19 13:51:03;;;;;;;;;28.50;28.50;;;;;;;;6481472;39;9020;-59
2024/03/19 13:57:05;;;;;;;;;32.25;29.25;;;;;;;;6488887;46;8930;-60
2024/03/19 14:03:10;;;;;;;;;20.75;19.25;;;;;;;;6490077;46;8935;-60
2024/03/19 14:09:11;;;;;;;;;25.00;24.25;;;;;;;;6484887;46;9096;-60
2024/03/19 14:15:12;;;;;;;;;23.00;22.75;;;;;;;;6485136;46;8941;-59
2024/03/19 14:21:13;;;;;;;;;28.00;24.00;;;;;;;;6488794;39;8907;-59
2024/03/19 14:27:15;;;;;;;;;26.75;24.50;;;;;;;;6483650;31;8935;-59
2024/03/19 14:33:16;;;;;;;;;23.50;20.25;;;;;;;;6488451;39;8969;-58
2024/03/19 14:39:18;;;;;;;;;34.50;27.25;;;;;;;;6490642;39;9544;-59
2024/03/19 14:45:20;;;;;;;;;25.50;25.00;;;;;;;;6490186;39;8992;-59
2024/03/19 14:51:21;;;;;;;;;24.75;24.00;;;;;;;;6490591;46;8991;-60
2024/03/19 14:57:24;;;;;;;;;28.75;25.50;;;;;;;;6491259;39;8952;-60
2024/03/19 15:03:30;;;;;;;;;29.00;27.75;;;;;;;;6489774;46;9025;-60
2024/03/19 15:09:32;;;;;;;;;23.50;23.00;;;;;;;;6490459;39;9574;-60
2024/03/19 15:15:35;;;;;;;;;27.00;26.50;;;;;;;;6489765;39;9608;-60
2024/03/19 15:21:37;;;;;;;;;23.50;23.50;;;;;;;;6491229;39;8936;-60
2024/03/19 15:27:39;;;;;;;;;26.50;22.25;;;;;;;;6491129;39;8965;-62
2024/03/19 15:33:41;;;;;;;;;26.25;25.50;;;;;;;;6490452;39;8985;-61
2024/03/19 15:39:42;;;;;;;;;27.50;22.25;;;;;;;;6490619;39;8968;-59
2024/03/19 15:45:47;;;;;;;;;29.00;27.00;;;;;;;;6489447;46;8954;-61
2024/03/19 15:51:49;;;;;;;;;28.00;23.75;;;;;;;;6490413;39;8968;-62
2024/03/19 15:57:52;;;;;;;;;23.00;21.75;;;;;;;;6490079;31;9062;-60
2024/03/19 16:03:53;;;;;;;;;30.00;28.00;;;;;;;;6489902;39;9101;-60
2024/03/19 16:09:54;;;;;;;;;32.75;31.25;;;;;;;;6490017;31;9546;-61
2024/03/19 16:16:00;;;;;;;;;35.75;34.00;;;;;;;;6490092;31;8907;-60
2024/03/19 16:22:03;;;;;;;;;40.50;35.25;;;;;;;;6489577;46;9070;-59
2024/03/19 16:28:04;;;;;;;;;39.33;34.00;;;;;;;;6489870;31;8969;-61
2024/03/19 16:34:05;;;;;;;;;31.25;27.00;;;;;;;;6489580;46;9034;-60
2024/03/19 16:40:07;;;;;;;;;34.25;30.75;;;;;;;;6490289;39;9567;-59
2024/03/19 16:46:09;;;;;;;;;40.00;34.00;;;;;;;;6489770;39;9023;-60
2024/03/19 16:52:11;;;;;;;;;32.50;29.50;;;;;;;;6490795;39;9025;-60
2024/03/19 16:58:13;;;;;;;;;41.25;31.00;;;;;;;;6490511;39;8900;-59
2024/03/19 17:04:14;;;;;;;;;29.00;21.50;;;;;;;;6492286;39;9049;-59
2024/03/19 17:10:18;;;;;;;;;36.50;32.00;;;;;;;;6492299;31;8931;-61
2024/03/19 17:16:19;;;;;;;;;39.25;33.00;;;;;;;;6490429;46;8962;-61
2024/03/19 17:22:23;;;;;;;;;34.75;28.75;;;;;;;;6490556;46;9076;-59
2024/03/19 17:28:24;;;;;;;;;31.25;28.75;;;;;;;;6490706;31;8929;-60
2024/03/19 17:34:27;;;;;;;;;38.25;30.75;;;;;;;;6491092;46;8946;-61
2024/03/19 17:40:29;;;;;;;;;38.25;30.00;;;;;;;;6491592;39;8884;-59
2024/03/19 17:46:32;;;;;;;;;36.00;35.00;;;;;;;;6491507;39;8949;-61
2024/03/19 17:52:33;;;;;;;;;22.75;20.50;;;;;;;;6491067;39;8927;-60
2024/03/19 17:58:34;;;;;;;;;34.00;31.75;;;;;;;;6492015;31;8926;-60
2024/03/19 18:04:35;;;;;;;;;40.50;32.50;;;;;;;;6491402;31;8944;-61
2024/03/19 18:10:36;;;;;;;;;36.75;33.75;;;;;;;;6490500;46;8938;-60
2024/03/19 18:16:38;;;;;;;;;37.25;32.25;;;;;;;;6491694;39;8878;-60
2024/03/19 18:22:40;;;;;;;;;33.00;29.50;;;;;;;;6491785;31;8905;-60
2024/03/19 18:28:41;;;;;;;;;35.00;30.00;;;;;;;;6491549;39;8947;-58
2024/03/19 18:34:44;;;;;;;;;42.00;33.50;;;;;;;;6490928;46;8875;-59
2024/03/19 18:40:49;;;;;;;;;44.25;35.00;;;;;;;;6491126;46;8963;-60
2024/03/19 18:46:50;;;;;;;;;39.00;36.50;;;;;;;;6490482;46;8867;-59
2024/03/19 18:52:51;;;;;;;;;42.75;38.25;;;;;;;;6490447;46;9061;-58
2024/03/19 18:58:52;;;;;;;;;49.00;42.00;;;;;;;;6490763;31;9000;-59
2024/03/19 19:04:55;;;;;;;;;36.50;34.00;;;;;;;;6490863;46;9026;-59
2024/03/19 19:10:58;;;;;;;;;40.00;35.50;;;;;;;;6490976;46;8922;-59
2024/03/19 19:17:05;;;;;;;;;57.75;45.25;;;;;;;;6491576;39;9470;-59
2024/03/19 19:23:07;;;;;;;;;60.25;48.00;;;;;;;;6491310;39;8918;-58
2024/03/19 19:29:08;;;;;;;;;49.25;42.75;;;;;;;;6490696;46;8812;-57
2024/03/19 19:35:10;;;;;;;;;51.75;45.00;;;;;;;;6490017;46;8902;-58
2024/03/19 19:41:12;;;;;;;;;51.00;42.50;;;;;;;;6491216;39;8979;-58
2024/03/19 19:47:15;;;;;;;;;49.00;43.25;;;;;;;;6491309;39;8933;-57
2024/03/19 19:53:16;;;;;;;;;58.50;44.75;;;;;;;;6489796;46;9042;-58
2024/03/19 19:59:17;;;;;;;;;53.50;44.25;;;;;;;;6490135;46;8859;-59
2024/03/19 20:05:19;;;;;;;;;47.75;43.75;;;;;;;;6491511;31;8948;-59
2024/03/19 20:11:20;;;;;;;;;39.75;35.75;;;;;;;;6490878;39;8989;-59
2024/03/19 20:17:21;;;;;;;;;56.50;47.00;;;;;;;;6490383;46;8864;-58
2024/03/19 20:23:22;;;;;;;;;43.25;39.50;;;;;;;;6491039;36;8870;-58
2024/03/19 20:29:23;;;;;;;;;48.00;43.75;;;;;;;;6490351;39;8952;-59
2024/03/19 20:35:26;;;;;;;;;58.50;45.00;;;;;;;;6490149;47;8854;-59
2024/03/19 20:41:27;;;;;;;;;45.25;39.75;;;;;;;;6490401;46;8868;-58
2024/03/19 20:47:28;;;;;;;;;48.50;43.50;;;;;;;;6490551;31;8871;-58
2024/03/19 20:53:31;;;;;;;;;45.25;38.25;;;;;;;;6489517;39;8989;-59
2024/03/19 20:59:33;;;;;;;;;51.25;42.00;;;;;;;;6490149;47;8842;-57
2024/03/19 21:05:34;;;;;;;;;52.75;44.50;;;;;;;;6490657;31;9669;-57
2024/03/19 21:11:36;;;;;;;;;43.25;41.25;;;;;;;;6490092;31;8925;-59
2024/03/19 21:17:37;;;;;;;;;43.75;35.75;;;;;;;;6489397;39;9212;-59
2024/03/19 21:23:38;;;;;;;;;39.00;33.25;;;;;;;;6490183;39;8865;-58
2024/03/19 21:29:41;;;;;;;;;45.00;41.50;;;;;;;;6489315;47;8923;-58
2024/03/19 21:35:43;;;;;;;;;34.00;30.25;;;;;;;;6489204;31;8877;-59
2024/03/19 21:41:45;;;;;;;;;48.25;42.00;;;;;;;;6492185;31;8859;-59
2024/03/19 21:47:46;;;;;;;;;37.25;33.25;;;;;;;;6491618;39;9500;-58
2024/03/19 21:53:48;;;;;;;;;44.50;38.00;;;;;;;;6491596;39;9001;-59
2024/03/19 21:59:49;;;;;;;;;45.75;41.50;;;;;;;;6492163;39;8985;-59
2024/03/19 22:05:50;;;;;;;;;52.00;43.50;;;;;;;;6491396;46;8999;-59
2024/03/19 22:11:53;;;;;;;;;49.50;42.50;;;;;;;;6491474;31;8919;-59
2024/03/19 22:17:54;;;;;;;;;57.00;45.00;;;;;;;;6491088;39;8902;-61
2024/03/19 22:23:55;;;;;;;;;53.50;44.50;;;;;;;;6491496;39;9509;-58
2024/03/19 22:29:57;;;;;;;;;58.25;47.25;;;;;;;;6491413;39;8970;-59
2024/03/19 22:36:00;;;;;;;;;48.25;43.50;;;;;;;;6491509;39;8880;-58
2024/03/19 22:42:01;;;;;;;;;50.50;42.50;;;;;;;;6491879;31;8874;-59
2024/03/19 22:48:06;;;;;;;;;52.50;46.25;;;;;;;;6490729;46;8915;-58
2024/03/19 22:54:08;;;;;;;;;56.00;43.75;;;;;;;;6491450;39;9088;-59
2024/03/19 23:00:34;;;;;;;;;48.50;41.50;;;;;;;;6491695;39;9015;-59
2024/03/19 23:06:36;;;;;;;;;48.75;42.75;;;;;;;;6491121;39;8870;-58
2024/03/19 23:12:38;;;;;;;;;50.00;41.00;;;;;;;;6491207;39;8932;-58
2024/03/19 23:18:39;;;;;;;;;41.00;40.25;;;;;;;;6491416;39;9578;-59
2024/03/19 23:24:41;;;;;;;;;41.50;40.25;;;;;;;;6490776;39;8900;-59
2024/03/19 23:30:42;;;;;;;;;43.50;39.25;;;;;;;;6490663;39;8917;-59
2024/03/19 23:36:43;;;;;;;;;43.00;38.25;;;;;;;;6490337;46;8889;-58
2024/03/19 23:42:44;;;;;;;;;41.75;37.75;;;;;;;;6490496;39;8936;-59
2024/03/19 23:48:45;;;;;;;;;44.25;37.00;;;;;;;;6490464;46;8915;-59
2024/03/19 23:54:48;;;;;;;;;48.25;45.00;;;;;;;;6490858;39;8878;-58
